Terminal Aerodrome Forecast
Issued by NWS Bismarck, ND

Home | Current Version | Previous Version | Graphics & Text | Print | Product List | Glossary On
Versions: 1 2 3 4 5 6 7 8 9 10 11 12 13 14 15 16
000
FTUS43 KBIS 211132
TAFISN
TAF
KISN 211132Z 2112/2212 18005KT P6SM FEW020
     FM211700 18013G21KT P6SM FEW250
     FM212300 18013KT P6SM FEW250
     FM220800 26007KT P6SM BKN120=

USA.gov is the U.S. government's official web portal to all federal, state and local government web resources and services.